HOURLY OBS INDEX

062

Central Tablelands - north

MUDGEE AIRPORT AWS

Site: 062101
Alt: 471.0m
4km NE of MUDGEE


  Time     Wind        Temp  DP   Baro     Rain since   Rain past  Vis(m), Cloud(base in m), Weather
  local        km/h                         9am  last   hr   10m    
Tue 04:00  SSE  6/  9  16.9 15.6  1018.8    0.0   0.0   0.0   0.0   10000 
Tue 04:30   SE  6/  7  16.5 15.4  1019.2    0.0   0.0   0.0   0.0   10000 
Tue 05:00  SSE  7/ 11  16.5 15.7  1019.5    0.0   0.0   0.0   0.0   10000 
Tue 05:30  SSE 11/ 19  17.3 15.8  1019.8    0.0   0.0   0.0   0.0   10000 
Tue 06:00   SE 15/ 20  17.7 15.3  1020.3    0.0   0.0   0.0   0.0   10000 
Tue 06:30   SE 17/ 28  18.2 14.7  1020.7    0.0   0.0   0.0   0.0   10000 
Tue 07:00  ESE 17/ 26  18.5 14.4  1021.0    0.0   0.0   0.0   0.0   10000 
Tue 07:30  ESE 11/ 17  19.1 14.6  1021.4    0.0   0.0   0.0   0.0   10000|SC 630 
Tue 08:00   SE 11/ 17  19.3 14.3  1021.9    0.0   0.0   0.0   0.0   10000|SC 690 
Tue 08:30   SE 15/ 20  19.7 14.5  1022.3    0.0   0.0   0.0   0.0   10000|SC 840 
Tue 09:00  ESE 17/ 33  20.1 14.5  1022.7    0.0   0.0   0.0   0.0   10000|OC 840 
Tue 09:30   SE 13/ 28  20.7 14.6  1022.6    0.0   0.0   0.0   0.0   10000|OC 840 

NULLO MOUNTAIN AWS

Site: 062100
Alt: 1130.0m
62km ESE of MUDGEE


  Time     Wind        Temp  DP   Baro     Rain since   Rain past  Vis(m), Cloud(base in m), Weather
  local        km/h                         9am  last   hr   10m    
Tue 04:00  ESE 19/ 28  13.2 13.2  ------    7.0   0.0   0.0   0.0   ----- 
Tue 04:30   SE 20/ 32  13.2 13.2  ------    7.0   0.0   0.0   0.0   ----- 
Tue 05:00  ESE 22/ 32  13.0 13.0  ------    7.0   0.0   0.0   0.0   ----- 
Tue 05:30  ESE 20/ 33  12.9 12.9  ------    7.0   0.0   0.0   0.0   ----- 
Tue 06:00  ESE 20/ 32  12.9 12.9  ------    7.0   0.0   0.0   0.0   ----- 
Tue 06:30  ESE 19/ 26  12.9 12.9  ------    7.0   0.0   0.0   0.0   ----- 
Tue 07:00  ESE 22/ 32  12.9 12.9  ------    7.0   0.0   0.0   0.0   ----- 
Tue 07:30  ESE 20/ 28  13.0 13.0  ------    7.0   0.0   0.0   0.0   ----- 
Tue 08:00  ESE 20/ 30  13.1 13.1  ------    7.0   0.0   0.0   0.0   ----- 
Tue 08:30    E 19/ 28  13.4 13.4  ------    7.0   0.0   0.0   0.0   ----- 
Tue 09:00    E 19/ 24  13.4 13.4  ------    7.0   0.0   0.0   0.0   ----- 
Tue 09:30  ESE 17/ 26  13.5 13.5  ------    0.0   0.0   0.0   0.0   -----